sensor_id;sensor_type;location;lat;lon;timestamp;P1;durP1;ratioP1;P2;durP2;ratioP2
32455;SDS011;18912;43.270;27.942;2022-09-01T00:02:19;22.00;;;9.82;;
32455;SDS011;18912;43.270;27.942;2022-09-01T00:04:45;19.58;;;9.32;;
32455;SDS011;18912;43.270;27.942;2022-09-01T00:07:12;29.17;;;9.20;;
32455;SDS011;18912;43.270;27.942;2022-09-01T00:09:38;20.45;;;8.27;;
32455;SDS011;18912;43.270;27.942;2022-09-01T00:12:07;22.25;;;8.60;;
32455;SDS011;18912;43.270;27.942;2022-09-01T00:14:35;16.05;;;8.75;;
32455;SDS011;18912;43.270;27.942;2022-09-01T00:17:05;22.10;;;9.52;;
32455;SDS011;18912;43.270;27.942;2022-09-01T00:19:33;16.38;;;8.27;;
32455;SDS011;18912;43.270;27.942;2022-09-01T00:22:00;19.35;;;8.48;;
32455;SDS011;18912;43.270;27.942;2022-09-01T00:24:27;16.35;;;7.97;;
32455;SDS011;18912;43.270;27.942;2022-09-01T00:26:53;18.52;;;8.50;;
32455;SDS011;18912;43.270;27.942;2022-09-01T00:29:20;21.30;;;8.13;;
32455;SDS011;18912;43.270;27.942;2022-09-01T00:31:46;21.48;;;9.05;;
32455;SDS011;18912;43.270;27.942;2022-09-01T00:34:12;15.70;;;8.53;;
32455;SDS011;18912;43.270;27.942;2022-09-01T00:36:37;23.57;;;8.93;;
32455;SDS011;18912;43.270;27.942;2022-09-01T00:39:03;13.73;;;8.70;;
32455;SDS011;18912;43.270;27.942;2022-09-01T00:43:57;20.77;;;9.85;;
32455;SDS011;18912;43.270;27.942;2022-09-01T00:46:29;21.33;;;8.88;;
32455;SDS011;18912;43.270;27.942;2022-09-01T00:49:02;16.02;;;8.57;;
32455;SDS011;18912;43.270;27.942;2022-09-01T00:52:01;18.35;;;8.77;;
32455;SDS011;18912;43.270;27.942;2022-09-01T00:54:32;18.75;;;9.05;;
32455;SDS011;18912;43.270;27.942;2022-09-01T00:57:01;22.70;;;9.00;;
32455;SDS011;18912;43.270;27.942;2022-09-01T00:59:27;16.30;;;8.75;;
32455;SDS011;18912;43.270;27.942;2022-09-01T01:01:54;14.60;;;8.40;;
32455;SDS011;18912;43.270;27.942;2022-09-01T01:04:22;23.23;;;8.93;;
32455;SDS011;18912;43.270;27.942;2022-09-01T01:06:49;18.38;;;8.82;;
32455;SDS011;18912;43.270;27.942;2022-09-01T01:09:28;17.17;;;8.70;;
32455;SDS011;18912;43.270;27.942;2022-09-01T01:11:57;13.68;;;7.72;;
32455;SDS011;18912;43.270;27.942;2022-09-01T01:14:24;17.08;;;8.50;;
32455;SDS011;18912;43.270;27.942;2022-09-01T01:16:53;16.25;;;8.23;;
32455;SDS011;18912;43.270;27.942;2022-09-01T01:19:24;20.33;;;8.45;;
32455;SDS011;18912;43.270;27.942;2022-09-01T01:22:19;15.63;;;8.02;;
32455;SDS011;18912;43.270;27.942;2022-09-01T01:25:12;26.77;;;8.38;;
32455;SDS011;18912;43.270;27.942;2022-09-01T01:27:38;17.65;;;7.60;;
32455;SDS011;18912;43.270;27.942;2022-09-01T01:30:07;14.20;;;8.48;;
32455;SDS011;18912;43.270;27.942;2022-09-01T01:32:35;17.80;;;7.28;;
32455;SDS011;18912;43.270;27.942;2022-09-01T01:35:02;12.60;;;7.32;;
32455;SDS011;18912;43.270;27.942;2022-09-01T01:37:30;15.35;;;7.07;;
32455;SDS011;18912;43.270;27.942;2022-09-01T01:39:59;18.48;;;7.03;;
32455;SDS011;18912;43.270;27.942;2022-09-01T01:42:25;11.60;;;6.73;;
32455;SDS011;18912;43.270;27.942;2022-09-01T01:44:52;15.45;;;7.70;;
32455;SDS011;18912;43.270;27.942;2022-09-01T01:47:18;14.38;;;7.40;;
32455;SDS011;18912;43.270;27.942;2022-09-01T01:49:44;18.37;;;9.17;;
32455;SDS011;18912;43.270;27.942;2022-09-01T01:52:10;14.87;;;7.57;;
32455;SDS011;18912;43.270;27.942;2022-09-01T01:54:42;20.30;;;7.25;;
32455;SDS011;18912;43.270;27.942;2022-09-01T01:57:10;17.73;;;7.63;;
32455;SDS011;18912;43.270;27.942;2022-09-01T01:59:35;12.50;;;6.97;;
32455;SDS011;18912;43.270;27.942;2022-09-01T02:02:04;16.77;;;8.13;;
32455;SDS011;18912;43.270;27.942;2022-09-01T02:04:32;35.30;;;7.93;;
32455;SDS011;18912;43.270;27.942;2022-09-01T02:06:58;18.05;;;7.43;;
32455;SDS011;18912;43.270;27.942;2022-09-01T02:09:24;10.73;;;7.33;;
32455;SDS011;18912;43.270;27.942;2022-09-01T02:11:50;13.97;;;7.30;;
32455;SDS011;18912;43.270;27.942;2022-09-01T02:14:19;13.45;;;7.35;;
32455;SDS011;18912;43.270;27.942;2022-09-01T02:16:46;13.82;;;8.30;;
32455;SDS011;18912;43.270;27.942;2022-09-01T02:19:11;16.80;;;8.20;;
32455;SDS011;18912;43.270;27.942;2022-09-01T02:21:37;13.20;;;7.70;;
32455;SDS011;18912;43.270;27.942;2022-09-01T02:24:09;17.27;;;8.07;;
32455;SDS011;18912;43.270;27.942;2022-09-01T02:26:39;17.55;;;7.85;;
32455;SDS011;18912;43.270;27.942;2022-09-01T02:29:11;13.82;;;7.85;;
32455;SDS011;18912;43.270;27.942;2022-09-01T02:31:44;14.82;;;8.23;;
32455;SDS011;18912;43.270;27.942;2022-09-01T02:34:11;16.85;;;8.10;;
32455;SDS011;18912;43.270;27.942;2022-09-01T02:36:41;13.75;;;7.25;;
32455;SDS011;18912;43.270;27.942;2022-09-01T02:39:16;14.52;;;7.60;;
32455;SDS011;18912;43.270;27.942;2022-09-01T02:41:44;19.35;;;8.35;;
32455;SDS011;18912;43.270;27.942;2022-09-01T02:44:10;14.45;;;8.57;;
32455;SDS011;18912;43.270;27.942;2022-09-01T02:46:40;15.77;;;8.17;;
32455;SDS011;18912;43.270;27.942;2022-09-01T02:49:11;13.80;;;8.15;;
32455;SDS011;18912;43.270;27.942;2022-09-01T02:51:42;19.20;;;8.07;;
32455;SDS011;18912;43.270;27.942;2022-09-01T02:54:09;24.30;;;8.50;;
32455;SDS011;18912;43.270;27.942;2022-09-01T02:56:41;16.15;;;7.93;;
32455;SDS011;18912;43.270;27.942;2022-09-01T02:59:13;16.55;;;8.40;;
32455;SDS011;18912;43.270;27.942;2022-09-01T03:01:42;19.10;;;7.60;;
32455;SDS011;18912;43.270;27.942;2022-09-01T03:04:11;11.70;;;8.10;;
32455;SDS011;18912;43.270;27.942;2022-09-01T03:06:38;19.63;;;7.75;;
32455;SDS011;18912;43.270;27.942;2022-09-01T03:09:08;15.13;;;8.10;;
32455;SDS011;18912;43.270;27.942;2022-09-01T03:11:37;11.77;;;7.50;;
32455;SDS011;18912;43.270;27.942;2022-09-01T03:14:04;13.15;;;8.32;;
32455;SDS011;18912;43.270;27.942;2022-09-01T03:16:31;9.68;;;7.30;;
32455;SDS011;18912;43.270;27.942;2022-09-01T03:18:57;19.30;;;7.47;;
32455;SDS011;18912;43.270;27.942;2022-09-01T03:21:23;18.15;;;7.60;;
32455;SDS011;18912;43.270;27.942;2022-09-01T03:23:49;18.83;;;8.03;;
32455;SDS011;18912;43.270;27.942;2022-09-01T03:26:17;10.10;;;7.40;;
32455;SDS011;18912;43.270;27.942;2022-09-01T03:28:46;22.65;;;7.95;;
32455;SDS011;18912;43.270;27.942;2022-09-01T03:33:38;14.98;;;7.00;;
32455;SDS011;18912;43.270;27.942;2022-09-01T03:36:05;19.10;;;7.93;;
32455;SDS011;18912;43.270;27.942;2022-09-01T03:38:31;15.88;;;7.53;;
32455;SDS011;18912;43.270;27.942;2022-09-01T03:40:59;17.25;;;8.65;;
32455;SDS011;18912;43.270;27.942;2022-09-01T03:43:28;15.63;;;8.10;;
32455;SDS011;18912;43.270;27.942;2022-09-01T03:45:55;16.67;;;7.75;;
32455;SDS011;18912;43.270;27.942;2022-09-01T03:48:25;15.00;;;7.85;;
32455;SDS011;18912;43.270;27.942;2022-09-01T03:50:53;16.13;;;7.43;;
32455;SDS011;18912;43.270;27.942;2022-09-01T03:53:20;15.30;;;7.30;;
32455;SDS011;18912;43.270;27.942;2022-09-01T03:55:48;16.27;;;6.72;;
32455;SDS011;18912;43.270;27.942;2022-09-01T03:58:15;13.00;;;7.25;;
32455;SDS011;18912;43.270;27.942;2022-09-01T04:00:55;15.18;;;7.88;;
32455;SDS011;18912;43.270;27.942;2022-09-01T04:03:23;14.80;;;7.13;;
32455;SDS011;18912;43.270;27.942;2022-09-01T04:05:51;17.10;;;7.43;;
32455;SDS011;18912;43.270;27.942;2022-09-01T04:08:18;16.00;;;8.20;;
32455;SDS011;18912;43.270;27.942;2022-09-01T04:10:49;21.25;;;7.53;;
32455;SDS011;18912;43.270;27.942;2022-09-01T04:13:17;16.73;;;7.32;;
32455;SDS011;18912;43.270;27.942;2022-09-01T04:15:45;16.92;;;8.05;;
32455;SDS011;18912;43.270;27.942;2022-09-01T04:18:11;21.20;;;7.63;;
32455;SDS011;18912;43.270;27.942;2022-09-01T04:20:45;16.77;;;7.63;;
32455;SDS011;18912;43.270;27.942;2022-09-01T04:25:48;19.75;;;8.40;;
32455;SDS011;18912;43.270;27.942;2022-09-01T04:30:51;18.23;;;6.50;;
32455;SDS011;18912;43.270;27.942;2022-09-01T04:33:20;13.43;;;7.13;;
32455;SDS011;18912;43.270;27.942;2022-09-01T04:35:51;14.07;;;7.35;;
32455;SDS011;18912;43.270;27.942;2022-09-01T04:38:21;15.00;;;7.68;;
32455;SDS011;18912;43.270;27.942;2022-09-01T04:40:49;18.50;;;7.15;;
32455;SDS011;18912;43.270;27.942;2022-09-01T04:43:15;17.27;;;6.57;;
32455;SDS011;18912;43.270;27.942;2022-09-01T04:45:41;14.90;;;6.88;;
32455;SDS011;18912;43.270;27.942;2022-09-01T04:48:06;16.13;;;6.30;;
32455;SDS011;18912;43.270;27.942;2022-09-01T04:50:32;16.47;;;6.17;;
32455;SDS011;18912;43.270;27.942;2022-09-01T04:55:25;10.07;;;6.03;;
32455;SDS011;18912;43.270;27.942;2022-09-01T04:57:54;12.95;;;6.15;;
32455;SDS011;18912;43.270;27.942;2022-09-01T05:00:22;10.60;;;6.13;;
32455;SDS011;18912;43.270;27.942;2022-09-01T05:02:50;16.08;;;5.70;;
32455;SDS011;18912;43.270;27.942;2022-09-01T05:05:18;9.68;;;5.95;;
32455;SDS011;18912;43.270;27.942;2022-09-01T05:07:46;13.00;;;5.88;;
32455;SDS011;18912;43.270;27.942;2022-09-01T05:10:16;12.43;;;6.07;;
32455;SDS011;18912;43.270;27.942;2022-09-01T05:12:46;12.10;;;5.63;;
32455;SDS011;18912;43.270;27.942;2022-09-01T05:15:13;10.02;;;5.65;;
32455;SDS011;18912;43.270;27.942;2022-09-01T05:17:39;14.57;;;5.15;;
32455;SDS011;18912;43.270;27.942;2022-09-01T05:20:06;11.32;;;6.10;;
32455;SDS011;18912;43.270;27.942;2022-09-01T05:22:33;15.45;;;5.85;;
32455;SDS011;18912;43.270;27.942;2022-09-01T05:25:00;12.50;;;5.90;;
32455;SDS011;18912;43.270;27.942;2022-09-01T05:27:44;14.43;;;6.05;;
32455;SDS011;18912;43.270;27.942;2022-09-01T05:30:13;10.85;;;5.72;;
32455;SDS011;18912;43.270;27.942;2022-09-01T05:32:40;10.30;;;5.35;;
32455;SDS011;18912;43.270;27.942;2022-09-01T05:35:07;13.77;;;5.78;;
32455;SDS011;18912;43.270;27.942;2022-09-01T05:37:36;11.45;;;5.53;;
32455;SDS011;18912;43.270;27.942;2022-09-01T05:40:04;15.15;;;5.30;;
32455;SDS011;18912;43.270;27.942;2022-09-01T05:42:30;35.42;;;6.15;;
32455;SDS011;18912;43.270;27.942;2022-09-01T05:44:57;10.82;;;5.70;;
32455;SDS011;18912;43.270;27.942;2022-09-01T05:47:24;12.27;;;5.30;;
32455;SDS011;18912;43.270;27.942;2022-09-01T05:49:50;19.40;;;5.65;;
32455;SDS011;18912;43.270;27.942;2022-09-01T05:52:17;8.55;;;5.20;;
32455;SDS011;18912;43.270;27.942;2022-09-01T05:54:50;9.77;;;5.50;;
32455;SDS011;18912;43.270;27.942;2022-09-01T05:57:16;10.80;;;5.43;;
32455;SDS011;18912;43.270;27.942;2022-09-01T05:59:42;12.77;;;5.05;;
32455;SDS011;18912;43.270;27.942;2022-09-01T06:02:10;11.10;;;5.13;;
32455;SDS011;18912;43.270;27.942;2022-09-01T06:04:37;9.07;;;4.47;;
32455;SDS011;18912;43.270;27.942;2022-09-01T06:07:10;12.00;;;5.00;;
32455;SDS011;18912;43.270;27.942;2022-09-01T06:09:42;12.02;;;5.20;;
32455;SDS011;18912;43.270;27.942;2022-09-01T06:12:10;9.40;;;4.75;;
32455;SDS011;18912;43.270;27.942;2022-09-01T06:14:41;10.55;;;5.30;;
32455;SDS011;18912;43.270;27.942;2022-09-01T06:17:08;13.93;;;4.70;;
32455;SDS011;18912;43.270;27.942;2022-09-01T06:19:35;21.05;;;5.18;;
32455;SDS011;18912;43.270;27.942;2022-09-01T06:22:02;11.10;;;5.53;;
32455;SDS011;18912;43.270;27.942;2022-09-01T06:24:28;9.57;;;5.18;;
32455;SDS011;18912;43.270;27.942;2022-09-01T06:26:54;9.43;;;5.03;;
32455;SDS011;18912;43.270;27.942;2022-09-01T06:29:19;16.47;;;5.47;;
32455;SDS011;18912;43.270;27.942;2022-09-01T06:31:45;19.37;;;5.90;;
32455;SDS011;18912;43.270;27.942;2022-09-01T06:34:15;8.57;;;5.25;;
32455;SDS011;18912;43.270;27.942;2022-09-01T06:39:08;12.52;;;5.45;;
32455;SDS011;18912;43.270;27.942;2022-09-01T06:41:38;9.82;;;5.25;;
32455;SDS011;18912;43.270;27.942;2022-09-01T06:44:03;13.63;;;5.67;;
32455;SDS011;18912;43.270;27.942;2022-09-01T06:46:29;13.63;;;5.90;;
32455;SDS011;18912;43.270;27.942;2022-09-01T06:51:23;9.60;;;4.97;;
32455;SDS011;18912;43.270;27.942;2022-09-01T06:53:52;10.15;;;5.28;;
32455;SDS011;18912;43.270;27.942;2022-09-01T06:56:24;11.13;;;5.05;;
32455;SDS011;18912;43.270;27.942;2022-09-01T06:58:55;18.83;;;5.55;;
32455;SDS011;18912;43.270;27.942;2022-09-01T07:03:51;16.52;;;5.13;;
32455;SDS011;18912;43.270;27.942;2022-09-01T07:06:18;14.65;;;5.35;;
32455;SDS011;18912;43.270;27.942;2022-09-01T07:08:51;20.10;;;5.10;;
32455;SDS011;18912;43.270;27.942;2022-09-01T07:11:30;8.52;;;5.13;;
32455;SDS011;18912;43.270;27.942;2022-09-01T07:13:57;17.85;;;5.60;;
32455;SDS011;18912;43.270;27.942;2022-09-01T07:16:28;9.45;;;4.80;;
32455;SDS011;18912;43.270;27.942;2022-09-01T07:18:59;13.60;;;5.22;;
32455;SDS011;18912;43.270;27.942;2022-09-01T07:21:27;11.48;;;5.05;;
32455;SDS011;18912;43.270;27.942;2022-09-01T07:23:55;13.50;;;5.43;;
32455;SDS011;18912;43.270;27.942;2022-09-01T07:26:22;15.00;;;5.18;;
32455;SDS011;18912;43.270;27.942;2022-09-01T07:28:49;15.43;;;4.93;;
32455;SDS011;18912;43.270;27.942;2022-09-01T07:31:22;14.68;;;4.60;;
32455;SDS011;18912;43.270;27.942;2022-09-01T07:33:49;10.98;;;4.55;;
32455;SDS011;18912;43.270;27.942;2022-09-01T07:36:16;14.05;;;4.75;;
32455;SDS011;18912;43.270;27.942;2022-09-01T07:38:43;14.05;;;5.05;;
32455;SDS011;18912;43.270;27.942;2022-09-01T07:41:09;10.80;;;5.60;;
32455;SDS011;18912;43.270;27.942;2022-09-01T07:43:39;12.43;;;5.10;;
32455;SDS011;18912;43.270;27.942;2022-09-01T07:46:06;10.02;;;5.63;;
32455;SDS011;18912;43.270;27.942;2022-09-01T07:48:32;12.82;;;5.25;;
32455;SDS011;18912;43.270;27.942;2022-09-01T07:50:58;17.43;;;5.20;;
32455;SDS011;18912;43.270;27.942;2022-09-01T07:55:54;13.80;;;5.07;;
32455;SDS011;18912;43.270;27.942;2022-09-01T07:58:21;15.88;;;5.68;;
32455;SDS011;18912;43.270;27.942;2022-09-01T08:00:50;16.30;;;5.68;;
32455;SDS011;18912;43.270;27.942;2022-09-01T08:03:18;13.82;;;5.07;;
32455;SDS011;18912;43.270;27.942;2022-09-01T08:05:46;8.98;;;4.72;;
32455;SDS011;18912;43.270;27.942;2022-09-01T08:08:15;12.57;;;5.20;;
32455;SDS011;18912;43.270;27.942;2022-09-01T08:10:41;11.85;;;5.57;;
32455;SDS011;18912;43.270;27.942;2022-09-01T08:13:08;10.13;;;5.28;;
32455;SDS011;18912;43.270;27.942;2022-09-01T08:15:34;13.80;;;5.65;;
32455;SDS011;18912;43.270;27.942;2022-09-01T08:18:02;14.60;;;5.90;;
32455;SDS011;18912;43.270;27.942;2022-09-01T08:20:28;10.73;;;4.90;;
32455;SDS011;18912;43.270;27.942;2022-09-01T08:22:54;18.33;;;5.38;;
32455;SDS011;18912;43.270;27.942;2022-09-01T08:25:20;12.52;;;5.78;;
32455;SDS011;18912;43.270;27.942;2022-09-01T08:27:47;7.93;;;5.03;;
32455;SDS011;18912;43.270;27.942;2022-09-01T08:30:12;11.07;;;5.23;;
32455;SDS011;18912;43.270;27.942;2022-09-01T08:32:38;19.53;;;5.53;;
32455;SDS011;18912;43.270;27.942;2022-09-01T08:35:07;20.88;;;5.15;;
32455;SDS011;18912;43.270;27.942;2022-09-01T08:37:36;12.60;;;5.45;;
32455;SDS011;18912;43.270;27.942;2022-09-01T08:40:06;17.73;;;5.32;;
32455;SDS011;18912;43.270;27.942;2022-09-01T08:47:35;14.40;;;5.53;;
32455;SDS011;18912;43.270;27.942;2022-09-01T08:50:01;14.60;;;5.43;;
32455;SDS011;18912;43.270;27.942;2022-09-01T08:52:33;10.90;;;5.38;;
32455;SDS011;18912;43.270;27.942;2022-09-01T08:55:04;13.88;;;5.68;;
32455;SDS011;18912;43.270;27.942;2022-09-01T08:57:39;10.38;;;5.13;;
32455;SDS011;18912;43.270;27.942;2022-09-01T09:00:08;12.25;;;5.10;;
32455;SDS011;18912;43.270;27.942;2022-09-01T09:08:08;11.68;;;4.68;;
32455;SDS011;18912;43.270;27.942;2022-09-01T09:16:10;12.38;;;4.65;;
32455;SDS011;18912;43.270;27.942;2022-09-01T09:18:41;11.75;;;5.53;;
32455;SDS011;18912;43.270;27.942;2022-09-01T09:21:21;10.57;;;5.40;;
32455;SDS011;18912;43.270;27.942;2022-09-01T09:23:54;7.75;;;4.70;;
32455;SDS011;18912;43.270;27.942;2022-09-01T09:26:24;14.65;;;5.47;;
32455;SDS011;18912;43.270;27.942;2022-09-01T09:28:53;9.48;;;5.07;;
32455;SDS011;18912;43.270;27.942;2022-09-01T09:33:53;14.55;;;4.95;;
32455;SDS011;18912;43.270;27.942;2022-09-01T09:36:21;14.45;;;4.97;;
32455;SDS011;18912;43.270;27.942;2022-09-01T09:39:06;12.93;;;5.05;;
32455;SDS011;18912;43.270;27.942;2022-09-01T09:41:35;17.48;;;5.38;;
32455;SDS011;18912;43.270;27.942;2022-09-01T09:44:14;12.38;;;5.50;;
32455;SDS011;18912;43.270;27.942;2022-09-01T09:46:41;13.95;;;5.18;;
32455;SDS011;18912;43.270;27.942;2022-09-01T09:51:38;18.58;;;5.40;;
32455;SDS011;18912;43.270;27.942;2022-09-01T09:56:45;12.30;;;5.40;;
32455;SDS011;18912;43.270;27.942;2022-09-01T09:59:21;15.18;;;5.72;;
32455;SDS011;18912;43.270;27.942;2022-09-01T10:01:51;12.73;;;5.43;;
32455;SDS011;18912;43.270;27.942;2022-09-01T10:04:33;13.32;;;5.35;;
32455;SDS011;18912;43.270;27.942;2022-09-01T10:07:00;14.20;;;4.88;;
32455;SDS011;18912;43.270;27.942;2022-09-01T10:11:53;17.60;;;5.80;;
32455;SDS011;18912;43.270;27.942;2022-09-01T10:14:30;15.50;;;5.53;;
32455;SDS011;18912;43.270;27.942;2022-09-01T10:17:03;11.35;;;5.60;;
32455;SDS011;18912;43.270;27.942;2022-09-01T10:19:34;14.30;;;5.78;;
32455;SDS011;18912;43.270;27.942;2022-09-01T10:22:04;10.95;;;5.32;;
32455;SDS011;18912;43.270;27.942;2022-09-01T10:24:30;12.55;;;5.65;;
32455;SDS011;18912;43.270;27.942;2022-09-01T10:27:00;19.08;;;5.57;;
32455;SDS011;18912;43.270;27.942;2022-09-01T10:29:35;12.30;;;5.32;;
32455;SDS011;18912;43.270;27.942;2022-09-01T10:32:08;17.63;;;6.25;;
32455;SDS011;18912;43.270;27.942;2022-09-01T10:34:37;16.95;;;5.40;;
32455;SDS011;18912;43.270;27.942;2022-09-01T10:37:05;12.32;;;5.43;;
32455;SDS011;18912;43.270;27.942;2022-09-01T10:39:31;12.98;;;6.15;;
32455;SDS011;18912;43.270;27.942;2022-09-01T10:41:58;15.75;;;5.40;;
32455;SDS011;18912;43.270;27.942;2022-09-01T10:44:32;19.13;;;5.35;;
32455;SDS011;18912;43.270;27.942;2022-09-01T10:51:57;14.30;;;5.63;;
32455;SDS011;18912;43.270;27.942;2022-09-01T10:57:06;14.18;;;5.32;;
32455;SDS011;18912;43.270;27.942;2022-09-01T10:59:52;9.15;;;5.72;;
32455;SDS011;18912;43.270;27.942;2022-09-01T11:02:19;11.65;;;5.20;;
32455;SDS011;18912;43.270;27.942;2022-09-01T11:09:43;12.57;;;5.85;;
32455;SDS011;18912;43.270;27.942;2022-09-01T11:23:04;14.68;;;5.55;;
32455;SDS011;18912;43.270;27.942;2022-09-01T11:25:59;12.13;;;5.43;;
32455;SDS011;18912;43.270;27.942;2022-09-01T11:31:15;9.45;;;5.30;;
32455;SDS011;18912;43.270;27.942;2022-09-01T11:44:58;13.00;;;6.03;;
32455;SDS011;18912;43.270;27.942;2022-09-01T11:47:51;14.65;;;5.80;;
32455;SDS011;18912;43.270;27.942;2022-09-01T11:50:30;18.83;;;6.03;;
32455;SDS011;18912;43.270;27.942;2022-09-01T11:52:59;18.65;;;6.05;;
32455;SDS011;18912;43.270;27.942;2022-09-01T11:55:32;17.63;;;5.75;;
32455;SDS011;18912;43.270;27.942;2022-09-01T11:58:00;12.68;;;6.47;;
32455;SDS011;18912;43.270;27.942;2022-09-01T12:00:27;18.25;;;5.93;;
32455;SDS011;18912;43.270;27.942;2022-09-01T12:03:02;20.60;;;6.43;;
32455;SDS011;18912;43.270;27.942;2022-09-01T12:05:32;19.95;;;6.20;;
32455;SDS011;18912;43.270;27.942;2022-09-01T12:08:03;16.13;;;6.55;;
32455;SDS011;18912;43.270;27.942;2022-09-01T12:10:38;17.42;;;6.30;;
32455;SDS011;18912;43.270;27.942;2022-09-01T12:13:25;16.88;;;6.28;;
32455;SDS011;18912;43.270;27.942;2022-09-01T12:15:54;20.15;;;6.00;;
32455;SDS011;18912;43.270;27.942;2022-09-01T12:18:25;21.00;;;6.40;;
32455;SDS011;18912;43.270;27.942;2022-09-01T12:20:54;18.45;;;6.82;;
32455;SDS011;18912;43.270;27.942;2022-09-01T12:23:29;18.38;;;6.15;;
32455;SDS011;18912;43.270;27.942;2022-09-01T12:25:58;14.07;;;6.03;;
32455;SDS011;18912;43.270;27.942;2022-09-01T12:28:27;21.42;;;6.82;;
32455;SDS011;18912;43.270;27.942;2022-09-01T12:31:04;16.38;;;7.03;;
32455;SDS011;18912;43.270;27.942;2022-09-01T12:33:32;29.15;;;7.53;;
32455;SDS011;18912;43.270;27.942;2022-09-01T12:38:48;26.83;;;6.90;;
32455;SDS011;18912;43.270;27.942;2022-09-01T12:41:24;19.70;;;6.95;;
32455;SDS011;18912;43.270;27.942;2022-09-01T12:44:27;23.52;;;6.45;;
32455;SDS011;18912;43.270;27.942;2022-09-01T12:50:06;21.10;;;6.75;;
32455;SDS011;18912;43.270;27.942;2022-09-01T12:52:54;29.65;;;7.05;;
32455;SDS011;18912;43.270;27.942;2022-09-01T12:55:32;14.90;;;6.85;;
32455;SDS011;18912;43.270;27.942;2022-09-01T12:58:01;24.30;;;7.45;;
32455;SDS011;18912;43.270;27.942;2022-09-01T13:00:29;27.67;;;7.50;;
32455;SDS011;18912;43.270;27.942;2022-09-01T13:08:02;14.43;;;7.18;;
32455;SDS011;18912;43.270;27.942;2022-09-01T13:10:34;15.18;;;7.28;;
32455;SDS011;18912;43.270;27.942;2022-09-01T13:13:03;21.73;;;8.07;;
32455;SDS011;18912;43.270;27.942;2022-09-01T13:15:30;20.70;;;7.25;;
32455;SDS011;18912;43.270;27.942;2022-09-01T13:17:57;20.23;;;7.28;;
32455;SDS011;18912;43.270;27.942;2022-09-01T13:20:22;20.53;;;7.33;;
32455;SDS011;18912;43.270;27.942;2022-09-01T13:22:48;16.90;;;6.15;;
32455;SDS011;18912;43.270;27.942;2022-09-01T13:25:15;28.47;;;6.70;;
32455;SDS011;18912;43.270;27.942;2022-09-01T13:27:42;22.50;;;6.93;;
32455;SDS011;18912;43.270;27.942;2022-09-01T13:30:09;25.25;;;6.97;;
32455;SDS011;18912;43.270;27.942;2022-09-01T13:32:37;17.23;;;7.15;;
32455;SDS011;18912;43.270;27.942;2022-09-01T13:35:06;18.73;;;7.40;;
32455;SDS011;18912;43.270;27.942;2022-09-01T13:37:32;26.45;;;7.03;;
32455;SDS011;18912;43.270;27.942;2022-09-01T13:39:58;24.83;;;7.10;;
32455;SDS011;18912;43.270;27.942;2022-09-01T13:42:24;21.37;;;7.43;;
32455;SDS011;18912;43.270;27.942;2022-09-01T13:44:49;17.10;;;7.67;;
32455;SDS011;18912;43.270;27.942;2022-09-01T13:47:15;20.30;;;7.57;;
32455;SDS011;18912;43.270;27.942;2022-09-01T13:49:40;18.20;;;7.40;;
32455;SDS011;18912;43.270;27.942;2022-09-01T13:52:06;20.03;;;7.70;;
32455;SDS011;18912;43.270;27.942;2022-09-01T13:54:31;27.10;;;7.87;;
32455;SDS011;18912;43.270;27.942;2022-09-01T13:56:57;16.70;;;7.60;;
32455;SDS011;18912;43.270;27.942;2022-09-01T13:59:23;22.83;;;7.53;;
32455;SDS011;18912;43.270;27.942;2022-09-01T14:01:48;19.23;;;7.30;;
32455;SDS011;18912;43.270;27.942;2022-09-01T14:04:14;24.40;;;8.67;;
32455;SDS011;18912;43.270;27.942;2022-09-01T14:06:40;16.17;;;8.43;;
32455;SDS011;18912;43.270;27.942;2022-09-01T14:09:08;19.02;;;7.50;;
32455;SDS011;18912;43.270;27.942;2022-09-01T14:11:35;17.70;;;7.38;;
32455;SDS011;18912;43.270;27.942;2022-09-01T14:14:01;14.20;;;7.05;;
32455;SDS011;18912;43.270;27.942;2022-09-01T14:18:52;18.73;;;6.50;;
32455;SDS011;18912;43.270;27.942;2022-09-01T14:21:18;14.90;;;6.40;;
32455;SDS011;18912;43.270;27.942;2022-09-01T14:23:44;12.93;;;6.43;;
32455;SDS011;18912;43.270;27.942;2022-09-01T14:26:11;24.05;;;6.30;;
32455;SDS011;18912;43.270;27.942;2022-09-01T14:28:38;20.83;;;6.90;;
32455;SDS011;18912;43.270;27.942;2022-09-01T14:31:09;11.68;;;6.05;;
32455;SDS011;18912;43.270;27.942;2022-09-01T14:33:39;16.23;;;5.63;;
32455;SDS011;18912;43.270;27.942;2022-09-01T14:36:05;20.98;;;6.03;;
32455;SDS011;18912;43.270;27.942;2022-09-01T14:38:32;16.80;;;6.65;;
32455;SDS011;18912;43.270;27.942;2022-09-01T14:40:59;15.82;;;6.18;;
32455;SDS011;18912;43.270;27.942;2022-09-01T14:43:25;17.33;;;6.53;;
32455;SDS011;18912;43.270;27.942;2022-09-01T14:46:00;18.03;;;6.27;;
32455;SDS011;18912;43.270;27.942;2022-09-01T14:48:31;14.88;;;6.70;;
32455;SDS011;18912;43.270;27.942;2022-09-01T14:50:57;18.80;;;6.90;;
32455;SDS011;18912;43.270;27.942;2022-09-01T14:53:23;15.35;;;6.00;;
32455;SDS011;18912;43.270;27.942;2022-09-01T14:55:49;12.73;;;6.47;;
32455;SDS011;18912;43.270;27.942;2022-09-01T14:58:14;17.37;;;5.80;;
32455;SDS011;18912;43.270;27.942;2022-09-01T15:00:41;13.65;;;6.15;;
32455;SDS011;18912;43.270;27.942;2022-09-01T15:03:06;15.63;;;6.20;;
32455;SDS011;18912;43.270;27.942;2022-09-01T15:05:34;18.80;;;5.88;;
32455;SDS011;18912;43.270;27.942;2022-09-01T15:08:00;16.92;;;7.05;;
32455;SDS011;18912;43.270;27.942;2022-09-01T15:10:26;19.93;;;6.17;;
32455;SDS011;18912;43.270;27.942;2022-09-01T15:12:53;17.00;;;6.65;;
32455;SDS011;18912;43.270;27.942;2022-09-01T15:15:23;12.10;;;5.53;;
32455;SDS011;18912;43.270;27.942;2022-09-01T15:17:50;14.68;;;5.68;;
32455;SDS011;18912;43.270;27.942;2022-09-01T15:20:15;21.33;;;5.60;;
32455;SDS011;18912;43.270;27.942;2022-09-01T15:23:00;13.63;;;6.13;;
32455;SDS011;18912;43.270;27.942;2022-09-01T15:25:25;13.57;;;6.23;;
32455;SDS011;18912;43.270;27.942;2022-09-01T15:27:51;16.37;;;6.17;;
32455;SDS011;18912;43.270;27.942;2022-09-01T15:30:16;14.00;;;6.23;;
32455;SDS011;18912;43.270;27.942;2022-09-01T15:32:43;18.60;;;6.13;;
32455;SDS011;18912;43.270;27.942;2022-09-01T15:35:11;13.80;;;6.05;;
32455;SDS011;18912;43.270;27.942;2022-09-01T15:37:37;17.52;;;6.05;;
32455;SDS011;18912;43.270;27.942;2022-09-01T15:40:04;19.13;;;6.20;;
32455;SDS011;18912;43.270;27.942;2022-09-01T15:42:31;12.98;;;6.00;;
32455;SDS011;18912;43.270;27.942;2022-09-01T15:44:58;21.75;;;5.80;;
32455;SDS011;18912;43.270;27.942;2022-09-01T15:47:23;15.27;;;5.73;;
32455;SDS011;18912;43.270;27.942;2022-09-01T15:49:50;13.55;;;5.57;;
32455;SDS011;18912;43.270;27.942;2022-09-01T15:52:15;13.03;;;5.90;;
32455;SDS011;18912;43.270;27.942;2022-09-01T15:54:41;9.73;;;5.60;;
32455;SDS011;18912;43.270;27.942;2022-09-01T15:57:06;22.60;;;5.63;;
32455;SDS011;18912;43.270;27.942;2022-09-01T15:59:32;8.97;;;5.37;;
32455;SDS011;18912;43.270;27.942;2022-09-01T16:01:58;18.30;;;5.80;;
32455;SDS011;18912;43.270;27.942;2022-09-01T16:04:23;9.70;;;5.53;;
32455;SDS011;18912;43.270;27.942;2022-09-01T16:06:49;14.40;;;6.50;;
32455;SDS011;18912;43.270;27.942;2022-09-01T16:09:17;13.95;;;5.80;;
32455;SDS011;18912;43.270;27.942;2022-09-01T16:11:45;8.52;;;5.47;;
32455;SDS011;18912;43.270;27.942;2022-09-01T16:14:10;10.70;;;5.50;;